Archival Weather

Chicago O'Hare International

Chicago, Illinois (KORD)

Report from: Tuesday, May 2, 2023 2:51 AM CDT
Current time: Sunday, February 25, 2024 3:31 PM CST

Current weather – Weather history – Daily summaries
Weather forecast

Temperature6.7°C (44.1°F)
Wind chill2.3°C (36.2°F)
Dew point0.0°C (32.0°F)
Winds 16 kts (8.2 m/s, 18.4 mph) Northwest (320°)
Wind gusts 26 kts (13.4 m/s, 29.9 mph)
Peak wind 26 kts (13.4 m/s, 29.9 mph) West-Northwest (300°) at 07:47
Visibility10 mi. (16.1 km)
Clouds Scattered clouds 3,500 ft. (1,067 m)
Scattered clouds 11,000 ft. (3,353 m)
Ceiling: Broken clouds 25,000 ft. (7,620 m)
Altimeter29.51 in.Hg (999 mB)
Relative humidity62 %
Density altitude-440 ft. (-134 m)
Sea-level pressure100.0 kPa (1000 mB, 29.52 in.Hg)
Remarks Automated weather observing station with precipitation discriminator
Flight conditions Visual Meteorological Conditions
Raw dataKORD 020751Z 32016G26KT 10SM SCT035 SCT110 BKN250 07/00 A2951 RMK AO2 PK WND 30026/0747 SLP996 T00670000
An error has occurred. This application may no longer respond until reloaded. Reload 🗙